メインページ
METAR-TAF:

METAR-TAF

空港 :

ベルリン, ドイツ

ベルリン・テーゲル空港

緯度: 52-34N, 経度: 013-19E, 海抜: 37m

現時点の気象観測

当レポートは11分前の11:50(UTC)に作成
西の風 15kt、最大29ktの突風を伴う、西/南西から北西の間で変化する
気温 8°C
湿度 66%
気圧 1018 hPa
視程10km以上
高度1600ftの雲はほとんどない
高度2800ftの雲は散在している, 積乱雲.
高度5500ftの千切れ雲あり

METAR: EDDT 231150Z 28015G29KT 250V320 9999 FEW016 SCT028CB BKN055 08/02 Q1018 TEMPO 29015G25KT

時間: 14:01 (12:01 UTC)

予報

当レポートは1時間1分前の11:00(UTC)に作成
予報は23日の 12時(UTC)から 24日の 12時(UTC)まで有効
西/北西の風 15kt、最大30ktの突風を伴う
視程10km以上
高度2000ftの雲は散在している
高度3500ftの千切れ雲あり
23日の 12時(UTC)から 23日の 16時(UTC)まで一時的に
視程: 3500m
高度1400ftの千切れ雲あり, 積乱雲.
にわか雨, 氷霰/雪霰
23日の 18時(UTC)から 23日の 20時(UTC)まで徐々に
西/南西の風 8kt

TAF: EDDT 231100Z 2312/2412 29015G30KT 9999 SCT020 BKN035 TEMPO 2312/2316 3500 SHRAGS BKN014CB BECMG 2318/2320 24008KT

4,000以上の空港の気象観測と天気予報(METAR報とTAF報)

利用可能な観測所は地図上に黄色い丸と赤い丸で示す。

丸の上にカーソルを重ねると観測所名を参照できる。

次にクリックすると気象観測と天気予報を参照できる。

マップの切り替え:黒色「×」印の緑ボタンをクリックして拡大、「-」印の緑ボタンをクリックして縮小、緑色の三角印をクリックして隣りの地図に切り替え


METAR-TAF: